createdAt,value
2023-03-29T00:00:09.863Z,99231.78
2023-03-29T00:03:04.888Z,99240.56
2023-03-29T00:05:36.460Z,99235.28
2023-03-29T00:08:04.381Z,99229.56
2023-03-29T00:10:34.833Z,99237.75
2023-03-29T00:13:03.301Z,99237.41
2023-03-29T00:15:30.793Z,99241.34
2023-03-29T00:17:58.329Z,99238.22
2023-03-29T00:20:25.972Z,99249.25
2023-03-29T00:22:53.295Z,99240.75
2023-03-29T00:25:20.469Z,99228.81
2023-03-29T00:27:47.892Z,99226.50
2023-03-29T00:30:15.994Z,99227.09
2023-03-29T00:32:43.793Z,99227.16
2023-03-29T00:35:11.004Z,99221.16
2023-03-29T00:37:38.366Z,99221.00
2023-03-29T00:40:09.786Z,99209.84
2023-03-29T00:42:38.013Z,99207.59
2023-03-29T00:45:09.868Z,99196.19
2023-03-29T00:47:46.884Z,99193.13
2023-03-29T00:50:29.630Z,99189.56
2023-03-29T00:53:23.847Z,99197.59
2023-03-29T00:56:14.129Z,99197.06
2023-03-29T00:58:56.154Z,99203.13
2023-03-29T01:01:42.221Z,99207.19
2023-03-29T01:04:42.734Z,99201.22
2023-03-29T01:07:22.882Z,99192.97
2023-03-29T01:10:12.063Z,99186.44
2023-03-29T01:12:53.876Z,99179.75
2023-03-29T01:15:27.136Z,99175.44
2023-03-29T01:17:58.414Z,99163.06
2023-03-29T01:20:50.989Z,99154.59
2023-03-29T01:23:51.234Z,99153.28
2023-03-29T01:26:52.814Z,99146.72
2023-03-29T01:29:43.188Z,99132.13
2023-03-29T01:32:26.934Z,99137.41
2023-03-29T01:35:10.137Z,99138.53
2023-03-29T01:37:56.685Z,99135.03
2023-03-29T01:40:28.077Z,99132.19
2023-03-29T01:43:17.500Z,99136.13
2023-03-29T01:46:27.199Z,99134.38
2023-03-29T01:49:05.470Z,99126.53
2023-03-29T01:51:40.695Z,99121.91
2023-03-29T01:54:21.446Z,99133.59
2023-03-29T01:56:52.171Z,99117.81
2023-03-29T01:59:28.834Z,99111.03
2023-03-29T02:02:03.299Z,99100.66
2023-03-29T02:04:48.058Z,99093.44
2023-03-29T02:07:44.423Z,99083.72
2023-03-29T02:10:14.579Z,99081.56
2023-03-29T02:12:42.585Z,99069.66
2023-03-29T02:15:21.492Z,99072.28
2023-03-29T02:17:50.929Z,99075.47
2023-03-29T02:20:40.688Z,99065.81
2023-03-29T02:23:24.569Z,99067.88
2023-03-29T02:25:54.685Z,99074.25
2023-03-29T02:28:24.692Z,99075.28
2023-03-29T02:31:27.868Z,99060.97
2023-03-29T02:34:22.837Z,99065.22
2023-03-29T02:37:06.791Z,99065.66
2023-03-29T02:39:36.002Z,99056.81
2023-03-29T02:42:06.237Z,99058.50
2023-03-29T02:44:40.701Z,99057.41
2023-03-29T02:47:35.624Z,99068.47
2023-03-29T02:50:06.622Z,99054.63
2023-03-29T02:52:47.184Z,99047.44
2023-03-29T02:55:18.908Z,99034.03
2023-03-29T02:57:46.240Z,99035.03
2023-03-29T03:00:15.049Z,99037.34
2023-03-29T03:02:42.910Z,99024.28
2023-03-29T03:05:11.422Z,99036.00
2023-03-29T03:07:40.604Z,99020.44
2023-03-29T03:10:11.123Z,99006.69
2023-03-29T03:12:38.998Z,98998.69
2023-03-29T03:15:07.872Z,98992.69
2023-03-29T03:17:40.164Z,98998.38
2023-03-29T03:20:13.295Z,98990.59
2023-03-29T03:22:48.927Z,99000.69
2023-03-29T03:25:21.056Z,99010.66
2023-03-29T03:27:51.372Z,99010.91
2023-03-29T03:30:22.303Z,99013.75
2023-03-29T03:33:12.669Z,99014.47
2023-03-29T03:36:02.906Z,99008.06
2023-03-29T03:38:33.453Z,99007.50
2023-03-29T03:41:02.305Z,99007.34
2023-03-29T03:43:34.700Z,99013.22
2023-03-29T03:46:02.625Z,99004.44
2023-03-29T03:48:31.579Z,99001.22
2023-03-29T03:51:16.899Z,99004.44
2023-03-29T03:53:44.604Z,99003.41
2023-03-29T03:56:16.261Z,99000.84
2023-03-29T03:59:19.263Z,99007.09
2023-03-29T04:02:01.379Z,99016.44
2023-03-29T04:04:29.419Z,99016.28
2023-03-29T04:07:04.705Z,99017.38
2023-03-29T04:09:56.830Z,99011.72
2023-03-29T04:12:50.158Z,99015.47
2023-03-29T04:15:17.933Z,99013.97
2023-03-29T04:17:52.149Z,99011.59
2023-03-29T04:20:30.476Z,99007.28
2023-03-29T04:22:59.440Z,99006.41
2023-03-29T04:25:28.015Z,99013.31
2023-03-29T04:28:14.407Z,99009.34
2023-03-29T04:30:50.699Z,99015.31
2023-03-29T04:33:41.175Z,99006.69
2023-03-29T04:36:09.459Z,99011.03
2023-03-29T04:38:37.896Z,99011.16
2023-03-29T04:41:05.560Z,99013.03
2023-03-29T04:44:02.555Z,99008.69
2023-03-29T04:46:32.417Z,99021.84
2023-03-29T04:49:12.640Z,99015.31
2023-03-29T04:51:43.503Z,99010.28
2023-03-29T04:54:11.780Z,99020.34
2023-03-29T04:57:14.609Z,99006.22
2023-03-29T05:00:15.109Z,99005.59
2023-03-29T05:03:15.212Z,99003.94
2023-03-29T05:05:55.248Z,99007.28
2023-03-29T05:08:22.470Z,99006.09
2023-03-29T05:11:11.601Z,99003.25
2023-03-29T05:13:42.630Z,99008.81
2023-03-29T05:16:11.103Z,99010.50
2023-03-29T05:18:39.573Z,99010.97
2023-03-29T05:21:07.618Z,99012.78
2023-03-29T05:23:36.749Z,99010.50
2023-03-29T05:26:24.408Z,99016.28
2023-03-29T05:28:54.465Z,99016.53
2023-03-29T05:31:23.724Z,99021.25
2023-03-29T05:33:54.780Z,99016.00
2023-03-29T05:36:25.478Z,99011.59
2023-03-29T05:38:54.981Z,99018.31
2023-03-29T05:41:24.774Z,99020.41
2023-03-29T05:44:01.653Z,99020.88
2023-03-29T05:46:30.493Z,99007.50
2023-03-29T05:49:02.408Z,99013.63
2023-03-29T05:51:56.895Z,99016.88
2023-03-29T05:54:26.290Z,99010.75
2023-03-29T05:56:53.567Z,99022.22
2023-03-29T05:59:21.166Z,99024.00
2023-03-29T06:01:48.674Z,99021.66
2023-03-29T06:04:20.805Z,99012.63
2023-03-29T06:07:05.614Z,99015.75
2023-03-29T06:09:33.908Z,99013.31
2023-03-29T06:12:04.247Z,99020.19
2023-03-29T06:14:37.481Z,99015.81
2023-03-29T06:17:19.011Z,99012.75
2023-03-29T06:19:47.678Z,99006.69
2023-03-29T06:22:16.165Z,99018.50
2023-03-29T06:24:43.375Z,99016.16
2023-03-29T06:27:21.767Z,99019.03
2023-03-29T06:29:55.475Z,99020.63
2023-03-29T06:32:23.294Z,99016.19
2023-03-29T06:35:00.878Z,99006.09
2023-03-29T06:37:33.801Z,99013.53
2023-03-29T06:40:21.646Z,99017.66
2023-03-29T06:42:49.289Z,99032.16
2023-03-29T06:45:40.466Z,99043.47
2023-03-29T06:48:17.266Z,99037.13
2023-03-29T06:50:44.529Z,99035.47
2023-03-29T06:53:15.764Z,99041.13
2023-03-29T06:55:45.834Z,99042.03
2023-03-29T06:58:45.241Z,99041.19
2023-03-29T07:01:28.558Z,99042.97
2023-03-29T07:04:08.195Z,99041.09
2023-03-29T07:07:01.380Z,99045.25
2023-03-29T07:09:33.405Z,99049.53
2023-03-29T07:12:32.442Z,99053.72
2023-03-29T07:15:01.677Z,99058.16
2023-03-29T07:17:49.782Z,99055.97
2023-03-29T07:20:17.729Z,99053.47
2023-03-29T07:22:51.190Z,99051.81
2023-03-29T07:25:38.646Z,99054.03
2023-03-29T07:28:06.700Z,99053.34
2023-03-29T07:30:35.280Z,99043.63
2023-03-29T07:33:12.302Z,99052.53
2023-03-29T07:35:47.875Z,99054.41
2023-03-29T07:38:15.672Z,99056.59
2023-03-29T07:40:48.280Z,99056.16
2023-03-29T07:43:36.946Z,99057.31
2023-03-29T07:46:06.714Z,99066.84
2023-03-29T07:48:37.208Z,99070.34
2023-03-29T07:51:07.881Z,99078.91
2023-03-29T07:53:55.399Z,99074.44
2023-03-29T07:56:47.693Z,99080.34
2023-03-29T07:59:15.375Z,99078.13
2023-03-29T08:01:45.031Z,99088.66
2023-03-29T08:04:25.389Z,99087.53
2023-03-29T08:07:19.362Z,99085.78
2023-03-29T08:10:20.703Z,99078.81
2023-03-29T08:12:58.605Z,99075.44
2023-03-29T08:15:46.687Z,99084.19
2023-03-29T08:18:27.953Z,99082.88
2023-03-29T08:20:55.265Z,99072.78
2023-03-29T08:23:22.725Z,99073.31
2023-03-29T08:26:09.354Z,99083.66
2023-03-29T08:28:38.645Z,99089.88
2023-03-29T08:31:10.067Z,99080.03
2023-03-29T08:33:41.032Z,99075.88
2023-03-29T08:36:27.693Z,99079.78
2023-03-29T08:38:58.198Z,99072.53
2023-03-29T08:41:41.027Z,99078.41
2023-03-29T08:45:21.666Z,99079.50
2023-03-29T08:48:24.661Z,99076.16
2023-03-29T08:51:28.567Z,99079.50
2023-03-29T08:54:12.500Z,99082.59
2023-03-29T08:57:25.631Z,99071.59
2023-03-29T09:00:04.583Z,99070.69
2023-03-29T09:02:36.073Z,99067.38
2023-03-29T09:05:28.116Z,99081.75
2023-03-29T09:08:18.830Z,99063.56
2023-03-29T09:11:23.476Z,99051.22
2023-03-29T09:14:25.075Z,99059.34
2023-03-29T09:17:36.049Z,99060.16
2023-03-29T09:20:57.020Z,99062.63
2023-03-29T09:24:27.427Z,99061.84
2023-03-29T09:27:23.274Z,99046.47
2023-03-29T09:30:28.654Z,99055.41
2023-03-29T10:07:46.296Z,99027.97
2023-03-29T10:10:29.688Z,99023.59
2023-03-29T10:13:07.435Z,99026.69
2023-03-29T10:15:34.627Z,99024.94
2023-03-29T10:18:10.960Z,99029.78
2023-03-29T10:20:41.144Z,99022.63
2023-03-29T10:23:19.175Z,99016.91
2023-03-29T10:25:46.842Z,99023.22
2023-03-29T10:28:18.573Z,99028.59
2023-03-29T10:30:54.291Z,99020.38
2023-03-29T10:33:25.066Z,99024.22
2023-03-29T10:35:52.661Z,99033.81
2023-03-29T10:38:25.425Z,99024.75
2023-03-29T10:40:55.494Z,99015.44
2023-03-29T10:43:29.769Z,99008.84
2023-03-29T10:46:11.731Z,99016.44
2023-03-29T10:48:46.327Z,99009.75
2023-03-29T10:51:17.952Z,99004.84
2023-03-29T10:53:46.679Z,99008.72
2023-03-29T10:56:47.035Z,98991.06
2023-03-29T10:59:28.967Z,98995.16
2023-03-29T11:02:14.645Z,98996.19
2023-03-29T11:05:42.769Z,98995.44
2023-03-29T11:08:55.716Z,98986.91
2023-03-29T11:12:16.075Z,98989.09
2023-03-29T11:15:38.355Z,98980.50
2023-03-29T11:19:00.555Z,98970.53
2023-03-29T11:22:06.718Z,98967.19
2023-03-29T11:25:14.818Z,98967.94
2023-03-29T11:28:15.612Z,98964.94
2023-03-29T11:31:09.212Z,98954.84
2023-03-29T11:34:44.963Z,98950.22
2023-03-29T11:38:11.997Z,98963.91
2023-03-29T11:40:58.417Z,98957.66
2023-03-29T11:43:46.140Z,98952.63
2023-03-29T11:46:27.296Z,98939.28
2023-03-29T11:49:06.240Z,98940.09
2023-03-29T11:51:54.456Z,98939.59
2023-03-29T11:54:52.935Z,98935.16
2023-03-29T11:57:48.591Z,98935.06
2023-03-29T12:00:38.596Z,98933.25
2023-03-29T12:03:38.741Z,98939.47
2023-03-29T12:06:58.878Z,98935.69
2023-03-29T12:09:49.998Z,98921.19
2023-03-29T12:12:46.491Z,98911.94
2023-03-29T12:15:43.248Z,98900.00
2023-03-29T12:18:51.733Z,98899.84
2023-03-29T12:21:26.926Z,98894.13
2023-03-29T12:23:55.419Z,98887.81
2023-03-29T12:27:02.943Z,98898.81
2023-03-29T12:30:42.740Z,98900.78
2023-03-29T12:33:41.363Z,98895.47
2023-03-29T12:36:56.313Z,98898.06
2023-03-29T12:39:45.550Z,98894.88
2023-03-29T12:42:32.891Z,98902.34
2023-03-29T12:45:40.339Z,98895.38
2023-03-29T12:48:27.286Z,98894.19
2023-03-29T12:51:02.763Z,98898.25
2023-03-29T12:53:40.416Z,98903.63
2023-03-29T12:56:20.787Z,98910.97
2023-03-29T12:58:59.980Z,98919.00
2023-03-29T13:01:35.706Z,98917.13
2023-03-29T13:04:23.490Z,98916.13
2023-03-29T13:07:06.119Z,98918.69
2023-03-29T13:10:09.505Z,98918.56
2023-03-29T13:12:44.628Z,98910.50
2023-03-29T13:15:14.927Z,98902.25
2023-03-29T13:18:12.259Z,98905.75
2023-03-29T13:20:59.115Z,98914.81
2023-03-29T13:23:44.492Z,98913.06
2023-03-29T13:26:52.135Z,98916.84
2023-03-29T13:30:17.466Z,98926.59
2023-03-29T13:33:21.478Z,98918.63
2023-03-29T13:36:03.722Z,98928.84
2023-03-29T13:38:32.138Z,98938.13
2023-03-29T13:41:00.245Z,98935.16
2023-03-29T13:43:44.629Z,98925.81
2023-03-29T13:46:38.668Z,98920.31
2023-03-29T13:49:29.562Z,98927.69
2023-03-29T13:52:16.348Z,98921.78
2023-03-29T13:55:29.334Z,98930.91
2023-03-29T13:58:43.561Z,98932.56
2023-03-29T14:01:29.241Z,98916.69
2023-03-29T14:03:58.716Z,98915.09
2023-03-29T14:06:36.708Z,98915.59
2023-03-29T14:09:08.781Z,98929.59
2023-03-29T14:11:37.156Z,98920.75
2023-03-29T14:14:08.232Z,98906.81
2023-03-29T14:16:40.259Z,98923.75
2023-03-29T14:19:16.234Z,98913.31
2023-03-29T14:22:21.380Z,98919.59
2023-03-29T14:24:56.825Z,98914.88
2023-03-29T14:27:24.407Z,98921.50
2023-03-29T14:29:55.426Z,98913.56
2023-03-29T14:32:33.524Z,98909.75
2023-03-29T14:35:01.115Z,98901.75
2023-03-29T14:37:31.077Z,98906.41
2023-03-29T14:39:59.520Z,98908.91
2023-03-29T14:42:29.098Z,98896.13
2023-03-29T14:45:06.368Z,98891.66
2023-03-29T14:47:34.782Z,98891.88
2023-03-29T14:50:03.903Z,98879.09
2023-03-29T14:52:32.407Z,98883.38
2023-03-29T14:55:02.692Z,98875.59
2023-03-29T14:57:36.797Z,98869.97
2023-03-29T15:00:18.975Z,98861.00
2023-03-29T15:03:02.720Z,98857.97
2023-03-29T15:05:41.178Z,98856.81
2023-03-29T15:08:38.486Z,98856.13
2023-03-29T15:11:28.154Z,98849.78
2023-03-29T15:14:09.002Z,98856.00
2023-03-29T15:16:47.489Z,98842.34
2023-03-29T15:19:22.547Z,98831.09
2023-03-29T15:21:51.395Z,98825.06
2023-03-29T15:24:28.775Z,98829.16
2023-03-29T15:27:13.468Z,98819.16
2023-03-29T15:29:46.378Z,98813.81
2023-03-29T15:32:33.883Z,98823.69
2023-03-29T15:35:05.938Z,98804.13
2023-03-29T15:37:33.538Z,98811.19
2023-03-29T15:40:07.834Z,98806.03
2023-03-29T15:42:36.505Z,98807.34
2023-03-29T15:45:06.391Z,98805.16
2023-03-29T15:47:33.944Z,98795.38
2023-03-29T15:50:03.648Z,98798.75
2023-03-29T15:52:31.869Z,98799.91
2023-03-29T15:54:59.116Z,98787.13
2023-03-29T15:57:26.484Z,98784.97
2023-03-29T15:59:53.900Z,98777.63
2023-03-29T16:02:24.857Z,98785.09
2023-03-29T16:05:18.333Z,98777.56
2023-03-29T16:07:46.076Z,98776.25
2023-03-29T16:10:13.437Z,98781.69
2023-03-29T16:12:40.997Z,98776.06
2023-03-29T16:15:18.690Z,98786.69
2023-03-29T16:17:46.214Z,98777.91
2023-03-29T16:20:19.925Z,98782.28
2023-03-29T16:22:49.093Z,98794.06
2023-03-29T16:25:22.846Z,98783.78
2023-03-29T16:27:52.640Z,98783.97
2023-03-29T16:30:20.552Z,98782.81
2023-03-29T16:32:47.891Z,98779.72
2023-03-29T16:35:32.290Z,98787.25
2023-03-29T16:37:59.695Z,98787.50
2023-03-29T16:40:27.887Z,98784.31
2023-03-29T16:42:55.259Z,98781.41
2023-03-29T16:45:23.137Z,98785.53
2023-03-29T16:47:51.170Z,98783.47
2023-03-29T16:50:20.230Z,98774.38
2023-03-29T16:52:54.277Z,98771.16
2023-03-29T16:55:21.595Z,98767.78
2023-03-29T16:57:50.859Z,98767.22
2023-03-29T17:00:20.220Z,98762.47
2023-03-29T17:02:50.988Z,98761.44
2023-03-29T17:05:19.204Z,98762.13
2023-03-29T17:07:46.897Z,98757.50
2023-03-29T17:10:14.899Z,98752.84
2023-03-29T17:12:42.374Z,98757.03
2023-03-29T17:15:10.441Z,98760.28
2023-03-29T17:17:37.833Z,98768.19
2023-03-29T17:20:12.396Z,98761.13
2023-03-29T17:22:40.908Z,98769.72
2023-03-29T17:25:09.343Z,98781.19
2023-03-29T17:27:37.967Z,98781.19
2023-03-29T17:30:08.084Z,98773.50
2023-03-29T17:32:36.457Z,98771.19
2023-03-29T17:35:04.734Z,98777.84
2023-03-29T17:37:32.030Z,98788.91
2023-03-29T17:39:59.206Z,98776.63
2023-03-29T17:42:26.743Z,98769.31
2023-03-29T17:44:54.492Z,98770.00
2023-03-29T17:47:21.823Z,98762.00
2023-03-29T17:49:51.122Z,98748.59
2023-03-29T17:52:19.292Z,98747.63
2023-03-29T17:54:46.541Z,98741.50
2023-03-29T17:57:13.812Z,98745.25
2023-03-29T17:59:41.186Z,98751.66
2023-03-29T18:02:19.725Z,98741.81
2023-03-29T18:04:47.654Z,98750.81
2023-03-29T18:07:17.941Z,98746.63
2023-03-29T18:09:45.351Z,98742.88
2023-03-29T18:12:12.755Z,98746.47
2023-03-29T18:14:40.056Z,98740.34
2023-03-29T18:17:07.366Z,98740.47
2023-03-29T18:19:35.128Z,98741.34
2023-03-29T18:22:02.380Z,98747.41
2023-03-29T18:24:49.225Z,98748.41
2023-03-29T18:27:17.350Z,98751.00
2023-03-29T18:29:44.856Z,98748.22
2023-03-29T18:32:12.629Z,98758.59
2023-03-29T18:34:39.903Z,98757.47
2023-03-29T18:37:09.265Z,98754.94
2023-03-29T18:39:36.554Z,98761.44
2023-03-29T18:42:04.088Z,98744.53
2023-03-29T18:44:31.555Z,98747.81
2023-03-29T18:46:59.415Z,98748.91
2023-03-29T18:49:27.014Z,98744.81
2023-03-29T18:51:55.437Z,98738.44
2023-03-29T18:54:22.606Z,98742.41
2023-03-29T18:56:49.976Z,98736.75
2023-03-29T18:59:17.542Z,98731.41
2023-03-29T19:01:45.358Z,98734.25
2023-03-29T19:04:13.429Z,98733.22
2023-03-29T19:06:42.596Z,98731.56
2023-03-29T19:09:10.042Z,98733.47
2023-03-29T19:11:38.157Z,98731.19
2023-03-29T19:14:09.126Z,98727.56
2023-03-29T19:16:37.198Z,98721.94
2023-03-29T19:19:06.705Z,98725.38
2023-03-29T19:21:34.058Z,98721.72
2023-03-29T19:24:04.927Z,98719.41
2023-03-29T19:26:33.443Z,98728.38
2023-03-29T19:29:01.254Z,98737.28
2023-03-29T19:31:28.793Z,98728.06
2023-03-29T19:33:56.143Z,98737.66
2023-03-29T19:36:23.405Z,98728.16
2023-03-29T19:38:51.572Z,98727.34
2023-03-29T19:41:18.757Z,98736.00
2023-03-29T19:43:46.419Z,98730.69
2023-03-29T19:46:15.642Z,98721.47
2023-03-29T19:48:45.221Z,98724.28
2023-03-29T19:51:15.386Z,98714.47
2023-03-29T19:53:42.708Z,98710.53
2023-03-29T19:56:10.911Z,98710.53
2023-03-29T19:58:38.354Z,98699.09
2023-03-29T20:01:06.307Z,98699.34
2023-03-29T20:03:36.302Z,98702.44
2023-03-29T20:06:09.927Z,98708.66
2023-03-29T20:08:38.894Z,98698.59
2023-03-29T20:11:10.184Z,98697.19
2023-03-29T20:13:41.605Z,98680.16
2023-03-29T20:16:14.867Z,98689.94
2023-03-29T20:18:46.849Z,98682.31
2023-03-29T20:21:16.591Z,98668.06
2023-03-29T20:23:44.772Z,98666.69
2023-03-29T20:26:12.658Z,98657.22
2023-03-29T20:28:40.497Z,98661.09
2023-03-29T20:31:12.372Z,98663.06
2023-03-29T20:33:41.372Z,98656.66
2023-03-29T20:36:09.056Z,98649.94
2023-03-29T20:38:36.959Z,98649.94
2023-03-29T20:41:05.643Z,98649.09
2023-03-29T20:43:37.456Z,98648.25
2023-03-29T20:46:22.606Z,98640.09
2023-03-29T20:48:53.737Z,98642.06
2023-03-29T20:51:30.230Z,98642.56
2023-03-29T20:54:07.706Z,98639.81
2023-03-29T20:56:39.977Z,98637.38
2023-03-29T20:59:11.010Z,98635.41
2023-03-29T21:01:42.477Z,98632.50
2023-03-29T21:04:10.857Z,98632.50
2023-03-29T21:06:41.517Z,98620.19
2023-03-29T21:09:09.001Z,98626.78
2023-03-29T21:11:36.566Z,98629.63
2023-03-29T21:14:04.315Z,98616.84
2023-03-29T21:16:31.627Z,98616.91
2023-03-29T21:19:04.122Z,98621.94
2023-03-29T21:21:33.565Z,98619.75
2023-03-29T21:24:01.057Z,98608.00
2023-03-29T21:26:28.764Z,98602.69
2023-03-29T21:28:56.303Z,98608.00
2023-03-29T21:31:23.664Z,98611.66
2023-03-29T21:33:52.964Z,98600.19
2023-03-29T21:36:21.048Z,98589.28
2023-03-29T21:38:48.313Z,98602.72
2023-03-29T21:41:15.861Z,98600.78
2023-03-29T21:43:42.988Z,98590.44
2023-03-29T21:46:11.226Z,98588.50
2023-03-29T21:48:38.584Z,98585.97
2023-03-29T21:51:06.516Z,98578.44
2023-03-29T21:53:34.720Z,98574.53
2023-03-29T21:56:03.036Z,98569.75
2023-03-29T21:58:30.709Z,98571.44
2023-03-29T22:00:57.984Z,98565.56
2023-03-29T22:03:25.615Z,98560.78
2023-03-29T22:06:02.921Z,98565.25
2023-03-29T22:08:31.236Z,98571.44
2023-03-29T22:10:58.506Z,98569.47
2023-03-29T22:13:28.851Z,98570.56
2023-03-29T22:15:59.122Z,98563.06
2023-03-29T22:18:30.188Z,98563.59
2023-03-29T22:20:58.058Z,98560.00
2023-03-29T22:23:25.249Z,98566.41
2023-03-29T22:25:52.363Z,98559.97
2023-03-29T22:28:19.557Z,98563.31
2023-03-29T22:30:46.898Z,98565.84
2023-03-29T22:33:14.290Z,98567.78
2023-03-29T22:35:41.497Z,98560.25
2023-03-29T22:38:08.627Z,98557.97
2023-03-29T22:40:40.729Z,98550.47
2023-03-29T22:43:08.103Z,98550.16
2023-03-29T22:45:35.460Z,98553.53
2023-03-29T22:48:02.713Z,98552.13
2023-03-29T22:50:29.902Z,98556.03
2023-03-29T22:52:57.307Z,98558.28
2023-03-29T22:55:24.638Z,98552.97
2023-03-29T22:57:51.976Z,98553.81
2023-03-29T23:00:19.702Z,98552.97
2023-03-29T23:02:52.421Z,98551.59
2023-03-29T23:05:20.057Z,98551.59
2023-03-29T23:07:47.546Z,98544.59
2023-03-29T23:10:15.063Z,98548.78
2023-03-29T23:12:42.892Z,98555.44
2023-03-29T23:15:11.642Z,98547.03
2023-03-29T23:17:38.760Z,98545.06
2023-03-29T23:20:07.266Z,98549.56
2023-03-29T23:22:36.200Z,98548.47
2023-03-29T23:25:03.756Z,98553.16
2023-03-29T23:27:30.933Z,98551.50
2023-03-29T23:29:59.476Z,98544.75
2023-03-29T23:32:26.875Z,98551.50
2023-03-29T23:34:54.045Z,98548.19
2023-03-29T23:37:21.457Z,98547.59
2023-03-29T23:39:48.670Z,98540.88
2023-03-29T23:42:16.323Z,98553.16
2023-03-29T23:44:43.872Z,98545.34
2023-03-29T23:47:11.000Z,98539.50
2023-03-29T23:49:38.617Z,98543.41
2023-03-29T23:52:05.953Z,98535.81
2023-03-29T23:54:33.213Z,98546.44
2023-03-29T23:57:00.728Z,98558.22
2023-03-29T23:59:30.585Z,98562.94
